Time,TemperatureF,DewpointF,PressureIn,WindDirection,WindDirectionDegrees,WindSpeedMPH,WindSpeedGustMPH,Humidity,HourlyPrecipIn,Conditions,Clouds,dailyrainin,SoftwareType,DateUTC
2015-04-19 00:02:00,74.0,70.6,29.99,NW,308,0.0,0.0,89,0.00,CLR,,0.00,WeatherDisplay:10.37,2015-04-19 04:02:00,
2015-04-19 00:07:00,74.0,70.9,29.99,NW,309,0.0,0.0,90,0.00,CLR,,0.00,WeatherDisplay:10.37,2015-04-19 04:07:00,
2015-04-19 00:12:00,73.9,70.8,29.99,NW,308,0.0,0.0,90,0.00,CLR,,0.00,WeatherDisplay:10.37,2015-04-19 04:12:00,
2015-04-19 00:17:00,73.8,70.7,29.99,NW,308,0.0,0.0,90,0.00,CLR,,0.00,WeatherDisplay:10.37,2015-04-19 04:17:00,
2015-04-19 00:22:00,73.7,70.9,29.99,NW,308,0.0,0.0,91,0.00,CLR,,0.00,WeatherDisplay:10.37,2015-04-19 04:22:00,
2015-04-19 00:27:00,73.6,70.8,29.99,NW,308,0.0,0.0,91,0.00,CLR,,0.00,WeatherDisplay:10.37,2015-04-19 04:27:00,
2015-04-19 00:32:00,73.5,70.7,29.99,NW,308,0.0,0.0,91,0.00,CLR,,0.00,WeatherDisplay:10.37,2015-04-19 04:32:00,
2015-04-19 00:37:00,73.4,70.6,29.99,NW,309,0.0,0.0,91,0.00,CLR,,0.00,WeatherDisplay:10.37,2015-04-19 04:37:00,
2015-04-19 00:42:00,73.2,70.4,29.99,NW,308,0.0,0.0,91,0.00,CLR,,0.00,WeatherDisplay:10.37,2015-04-19 04:42:00,
2015-04-19 00:47:00,73.1,70.3,29.98,NW,309,0.0,0.0,91,0.00,CLR,,0.00,WeatherDisplay:10.37,2015-04-19 04:47:00,
2015-04-19 00:52:00,73.0,70.2,29.98,NW,309,0.0,0.0,91,0.00,CLR,,0.00,WeatherDisplay:10.37,2015-04-19 04:52:00,
2015-04-19 00:57:00,72.9,70.4,29.98,NW,308,0.0,0.0,92,0.00,CLR,,0.00,WeatherDisplay:10.37,2015-04-19 04:57:00,
2015-04-19 01:02:00,72.9,70.4,29.98,NW,308,0.0,0.0,92,0.00,CLR,,0.00,WeatherDisplay:10.37,2015-04-19 05:02:00,
2015-04-19 01:07:00,73.0,70.5,29.97,NW,308,0.0,0.0,92,0.00,CLR,,0.00,WeatherDisplay:10.37,2015-04-19 05:07:00,
2015-04-19 01:17:00,73.0,70.5,29.97,NW,308,0.0,0.0,92,0.00,CLR,,0.00,WeatherDisplay:10.37,2015-04-19 05:17:00,
2015-04-19 01:22:00,72.8,70.3,29.97,NW,308,0.0,0.0,92,0.00,CLR,,0.00,WeatherDisplay:10.37,2015-04-19 05:22:00,
2015-04-19 01:27:00,72.6,70.1,29.97,NW,308,0.0,0.0,92,0.00,CLR,,0.00,WeatherDisplay:10.37,2015-04-19 05:27:00,
2015-04-19 01:32:00,72.5,70.0,29.96,NW,309,0.0,0.0,92,0.00,CLR,,0.00,WeatherDisplay:10.37,2015-04-19 05:32:00,
2015-04-19 01:37:00,72.4,69.9,29.96,NW,308,0.0,0.0,92,0.00,CLR,,0.00,WeatherDisplay:10.37,2015-04-19 05:37:00,
2015-04-19 01:42:00,72.4,69.9,29.96,NW,309,0.0,0.0,92,0.00,CLR,,0.00,WeatherDisplay:10.37,2015-04-19 05:42:00,
2015-04-19 01:47:00,72.5,70.4,29.96,NW,308,0.0,0.0,93,0.00,CLR,,0.00,WeatherDisplay:10.37,2015-04-19 05:47:00,
2015-04-19 01:52:00,72.5,70.4,29.95,NW,308,0.0,0.0,93,0.00,CLR,,0.00,WeatherDisplay:10.37,2015-04-19 05:52:00,
2015-04-19 01:57:00,72.7,70.6,29.95,SSW,196,0.0,0.0,93,0.00,CLR,,0.00,WeatherDisplay:10.37,2015-04-19 05:57:00,
2015-04-19 02:02:00,72.7,70.6,29.95,SSW,209,0.0,0.0,93,0.00,CLR,,0.00,WeatherDisplay:10.37,2015-04-19 06:02:00,
2015-04-19 02:07:00,72.7,70.6,29.95,SSW,209,0.0,0.0,93,0.00,CLR,,0.00,WeatherDisplay:10.37,2015-04-19 06:07:00,
2015-04-19 02:13:00,72.7,70.6,29.94,SW,219,0.0,0.0,93,0.00,CLR,,0.00,WeatherDisplay:10.37,2015-04-19 06:13:00,
2015-04-19 02:18:00,72.8,70.7,29.94,SW,217,0.0,0.0,93,0.00,CLR,,0.00,WeatherDisplay:10.37,2015-04-19 06:18:00,
2015-04-19 02:23:00,72.8,70.7,29.94,SSW,209,0.0,0.0,93,0.00,CLR,,0.00,WeatherDisplay:10.37,2015-04-19 06:23:00,
2015-04-19 02:28:00,72.9,70.8,29.94,SSW,209,0.0,0.0,93,0.00,CLR,,0.00,WeatherDisplay:10.37,2015-04-19 06:28:00,
2015-04-19 02:33:00,72.9,70.8,29.94,SSW,209,0.0,0.0,93,0.00,CLR,,0.00,WeatherDisplay:10.37,2015-04-19 06:33:00,
2015-04-19 02:38:00,73.1,71.3,29.94,SSW,209,0.0,0.0,94,0.00,CLR,,0.00,WeatherDisplay:10.37,2015-04-19 06:38:00,
2015-04-19 02:43:00,73.1,71.0,29.94,SSW,209,0.0,0.0,93,0.00,CLR,,0.00,WeatherDisplay:10.37,2015-04-19 06:43:00,
2015-04-19 02:48:00,72.9,70.8,29.94,SSW,209,0.0,0.0,93,0.00,CLR,,0.00,WeatherDisplay:10.37,2015-04-19 06:48:00,
2015-04-19 02:53:00,72.7,70.6,29.94,SSW,209,0.0,0.0,93,0.00,CLR,,0.00,WeatherDisplay:10.37,2015-04-19 06:53:00,
2015-04-19 02:58:00,72.5,70.4,29.94,SSW,209,0.0,0.0,93,0.00,CLR,,0.00,WeatherDisplay:10.37,2015-04-19 06:58:00,
2015-04-19 03:03:00,72.5,70.4,29.94,SSW,209,0.0,0.0,93,0.00,CLR,,0.00,WeatherDisplay:10.37,2015-04-19 07:03:00,
2015-04-19 03:08:00,72.4,70.3,29.94,SSW,209,0.0,0.0,93,0.00,CLR,,0.00,WeatherDisplay:10.37,2015-04-19 07:08:00,
2015-04-19 03:13:00,72.2,70.1,29.94,SSW,209,0.0,0.0,93,0.00,CLR,,0.00,WeatherDisplay:10.37,2015-04-19 07:13:00,
2015-04-19 03:18:00,72.2,70.4,29.94,SSW,209,0.0,0.0,94,0.00,CLR,,0.00,WeatherDisplay:10.37,2015-04-19 07:18:00,
2015-04-19 03:23:00,72.4,70.6,29.94,SSW,209,0.0,0.0,94,0.00,CLR,,0.00,WeatherDisplay:10.37,2015-04-19 07:23:00,
2015-04-19 03:28:00,72.4,70.6,29.94,SSW,209,0.0,0.0,94,0.00,CLR,,0.00,WeatherDisplay:10.37,2015-04-19 07:28:00,
2015-04-19 03:33:00,72.5,70.7,29.94,SSW,209,0.0,0.0,94,0.00,CLR,,0.00,WeatherDisplay:10.37,2015-04-19 07:33:00,
2015-04-19 03:38:00,72.5,70.7,29.94,SSW,209,0.0,0.0,94,0.00,CLR,,0.00,WeatherDisplay:10.37,2015-04-19 07:38:00,
2015-04-19 03:43:00,72.3,70.5,29.94,SSW,209,0.0,0.0,94,0.00,CLR,,0.00,WeatherDisplay:10.37,2015-04-19 07:43:00,
2015-04-19 03:48:00,72.0,70.2,29.94,SSW,209,0.0,0.0,94,0.00,CLR,,0.00,WeatherDisplay:10.37,2015-04-19 07:48:00,
2015-04-19 03:53:00,71.9,70.1,29.94,SSW,209,0.0,0.0,94,0.00,CLR,,0.00,WeatherDisplay:10.37,2015-04-19 07:53:00,
2015-04-19 03:58:00,71.8,70.0,29.94,SSW,209,0.0,0.0,94,0.00,CLR,,0.00,WeatherDisplay:10.37,2015-04-19 07:58:00,
2015-04-19 04:03:00,71.7,69.9,29.94,SSW,209,0.0,0.0,94,0.00,CLR,,0.00,WeatherDisplay:10.37,2015-04-19 08:03:00,
2015-04-19 04:08:00,71.7,69.9,29.94,SSW,209,0.0,0.0,94,0.00,CLR,,0.00,WeatherDisplay:10.37,2015-04-19 08:08:00,
2015-04-19 04:13:00,71.7,70.2,29.94,SSW,209,0.0,0.0,95,0.00,CLR,,0.00,WeatherDisplay:10.37,2015-04-19 08:13:00,
2015-04-19 04:18:00,71.6,70.1,29.94,SSW,209,0.0,0.0,95,0.00,CLR,,0.00,WeatherDisplay:10.37,2015-04-19 08:18:00,
2015-04-19 04:23:00,71.3,69.5,29.94,SSW,209,0.0,0.0,94,0.00,CLR,,0.00,WeatherDisplay:10.37,2015-04-19 08:23:00,
2015-04-19 04:28:00,71.3,69.5,29.94,SSW,209,0.0,0.0,94,0.00,CLR,,0.00,WeatherDisplay:10.37,2015-04-19 08:28:00,
2015-04-19 04:33:00,71.3,69.5,29.94,North,9,0.0,0.0,94,0.00,CLR,,0.00,WeatherDisplay:10.37,2015-04-19 08:33:00,
2015-04-19 04:38:00,71.3,69.5,29.94,North,0,0.0,0.0,94,0.00,CLR,,0.00,WeatherDisplay:10.37,2015-04-19 08:38:00,